Aérodrome :
LOGIN :

S'inscrire | Disclaimer

   EN    FR    IT 

 










Légende :    VFR   VFR Marginal   IFR   IFR Intensif   IFR Très Intensif
Visi : 
Plafond : 
>= 8 km
>= 3000ft
5 à 8 km
1000 à 3000 ft
1500m à 5 km
500 à 1000 ft
800 à 1500m
200 à 500 ft
< 800m
< 200 ft
Symboles :   Orages  Brouillard  Fortes neiges  Fortes précipitations  Vent > 20 kt
SIGMETs :   Divers  Orages  Givrage  Turbulence  Onde Orograph.  Cendres Volcan.







- Altitude de l'aérodrome : 796 ft
- Code IATA : SYT
- Voir les cartes d'approche


LFLN - Saint-Yan

DERNIER METAR :
  • 281700Z AUTO 31006KT CAVOK 18/07 Q1025 NOSIG

METARs EXPIRÉS :
  • 281630Z AUTO 30005KT 260V350 CAVOK 19/06 Q1025 NOSIG
  • 281600Z AUTO 31004KT 270V360 CAVOK 19/07 Q1025 NOSIG
  • 281530Z AUTO 33006KT CAVOK 18/07 Q1025 NOSIG
  • 281500Z AUTO 32007KT 270V360 CAVOK 18/06 Q1025 NOSIG
  • 281430Z AUTO VRB03KT CAVOK 19/06 Q1025 NOSIG

TAF TAF LFLN
Valide du 28 à 18h jusqu'au 29 à 03h UTC


281700Z 2818/2903 32005KT 9999 FEW050
BECMG 2818/2821 VRB03KT
BECMG 2821/2824 CAVOK
BECMG 2900/2903 0800 FG BKN001
Pas de NOTAMs connus pour ce terrain.



MET'MAP, la Météo Aéronautique d'un coup d'oeil ! - Copyright ORBIFLY Décembre 2007 - Disclaimer

ORBIFLY MET'MAP TEAM :

Programmation & Développement : Alexandra Zaïnal
Conception & Développement : Baudouin d'Aumeries
Co-Programmation & Développement : Marc-Olivier Méhu
Soutien technique & logistique : Manuel Goepfert

Contact : metmap@orbifly.com




SOURCES & CREDITS :

   NOAA